sensor_id;sensor_type;location;lat;lon;timestamp;temperature;humidity
27633;DHT22;15046;50.930;13.334;2023-07-22T00:00:51;14.10;99.90
27633;DHT22;15046;50.930;13.334;2023-07-22T00:03:17;14.10;99.90
27633;DHT22;15046;50.930;13.334;2023-07-22T00:05:43;14.10;99.90
27633;DHT22;15046;50.930;13.334;2023-07-22T00:08:09;14.10;99.90
27633;DHT22;15046;50.930;13.334;2023-07-22T00:10:35;14.10;99.90
27633;DHT22;15046;50.930;13.334;2023-07-22T00:13:01;14.10;99.90
27633;DHT22;15046;50.930;13.334;2023-07-22T00:15:27;14.00;99.90
27633;DHT22;15046;50.930;13.334;2023-07-22T00:17:53;14.00;99.90
27633;DHT22;15046;50.930;13.334;2023-07-22T00:20:19;14.00;99.90
27633;DHT22;15046;50.930;13.334;2023-07-22T00:22:45;13.90;99.90
27633;DHT22;15046;50.930;13.334;2023-07-22T00:25:12;13.90;99.90
27633;DHT22;15046;50.930;13.334;2023-07-22T00:27:39;13.90;99.90
27633;DHT22;15046;50.930;13.334;2023-07-22T00:30:06;13.90;99.90
27633;DHT22;15046;50.930;13.334;2023-07-22T00:32:32;13.80;99.90
27633;DHT22;15046;50.930;13.334;2023-07-22T00:34:58;13.80;99.90
27633;DHT22;15046;50.930;13.334;2023-07-22T00:37:24;13.80;99.90
27633;DHT22;15046;50.930;13.334;2023-07-22T00:39:51;13.80;99.90
27633;DHT22;15046;50.930;13.334;2023-07-22T00:42:17;13.80;99.90
27633;DHT22;15046;50.930;13.334;2023-07-22T00:44:42;13.70;99.90
27633;DHT22;15046;50.930;13.334;2023-07-22T00:47:08;13.70;99.90
27633;DHT22;15046;50.930;13.334;2023-07-22T00:49:35;13.70;99.90
27633;DHT22;15046;50.930;13.334;2023-07-22T00:52:02;13.70;99.90
27633;DHT22;15046;50.930;13.334;2023-07-22T00:54:29;13.70;99.90
27633;DHT22;15046;50.930;13.334;2023-07-22T00:56:57;13.70;99.90
27633;DHT22;15046;50.930;13.334;2023-07-22T00:59:23;13.70;99.90
27633;DHT22;15046;50.930;13.334;2023-07-22T01:01:49;13.80;99.90
27633;DHT22;15046;50.930;13.334;2023-07-22T01:04:16;13.80;99.90
27633;DHT22;15046;50.930;13.334;2023-07-22T01:06:44;13.80;99.90
27633;DHT22;15046;50.930;13.334;2023-07-22T01:09:11;13.80;99.90
27633;DHT22;15046;50.930;13.334;2023-07-22T01:11:37;13.80;99.90
27633;DHT22;15046;50.930;13.334;2023-07-22T01:14:02;13.80;99.90
27633;DHT22;15046;50.930;13.334;2023-07-22T01:16:29;13.80;99.90
27633;DHT22;15046;50.930;13.334;2023-07-22T01:18:55;13.80;99.90
27633;DHT22;15046;50.930;13.334;2023-07-22T01:21:25;13.80;99.90
27633;DHT22;15046;50.930;13.334;2023-07-22T01:23:52;13.80;99.90
27633;DHT22;15046;50.930;13.334;2023-07-22T01:26:19;13.80;99.90
27633;DHT22;15046;50.930;13.334;2023-07-22T01:28:45;13.70;99.90
27633;DHT22;15046;50.930;13.334;2023-07-22T01:31:11;13.70;99.90
27633;DHT22;15046;50.930;13.334;2023-07-22T01:33:37;13.70;99.90
27633;DHT22;15046;50.930;13.334;2023-07-22T01:36:03;13.60;99.90
27633;DHT22;15046;50.930;13.334;2023-07-22T01:38:29;13.60;99.90
27633;DHT22;15046;50.930;13.334;2023-07-22T01:40:56;13.50;99.90
27633;DHT22;15046;50.930;13.334;2023-07-22T01:43:22;13.50;99.90
27633;DHT22;15046;50.930;13.334;2023-07-22T01:45:48;13.50;99.90
27633;DHT22;15046;50.930;13.334;2023-07-22T01:48:14;13.50;99.90
27633;DHT22;15046;50.930;13.334;2023-07-22T01:50:40;13.40;99.90
27633;DHT22;15046;50.930;13.334;2023-07-22T01:53:05;13.40;99.90
27633;DHT22;15046;50.930;13.334;2023-07-22T01:55:32;13.40;99.90
27633;DHT22;15046;50.930;13.334;2023-07-22T01:57:58;13.40;99.90
27633;DHT22;15046;50.930;13.334;2023-07-22T02:00:24;13.40;99.90
27633;DHT22;15046;50.930;13.334;2023-07-22T02:02:50;13.40;99.90
27633;DHT22;15046;50.930;13.334;2023-07-22T02:05:16;13.40;99.90
27633;DHT22;15046;50.930;13.334;2023-07-22T02:07:41;13.40;99.90
27633;DHT22;15046;50.930;13.334;2023-07-22T02:10:08;13.40;99.90
27633;DHT22;15046;50.930;13.334;2023-07-22T02:12:35;13.50;99.90
27633;DHT22;15046;50.930;13.334;2023-07-22T02:15:01;13.50;99.90
27633;DHT22;15046;50.930;13.334;2023-07-22T02:17:28;13.50;99.90
27633;DHT22;15046;50.930;13.334;2023-07-22T02:19:54;13.40;99.90
27633;DHT22;15046;50.930;13.334;2023-07-22T02:22:20;13.40;99.90
27633;DHT22;15046;50.930;13.334;2023-07-22T02:24:46;13.40;99.90
27633;DHT22;15046;50.930;13.334;2023-07-22T02:27:11;13.30;99.90
27633;DHT22;15046;50.930;13.334;2023-07-22T02:29:37;13.30;99.90
27633;DHT22;15046;50.930;13.334;2023-07-22T02:32:03;13.30;99.90
27633;DHT22;15046;50.930;13.334;2023-07-22T02:34:29;13.30;99.90
27633;DHT22;15046;50.930;13.334;2023-07-22T02:36:55;13.30;99.90
27633;DHT22;15046;50.930;13.334;2023-07-22T02:39:20;13.30;99.90
27633;DHT22;15046;50.930;13.334;2023-07-22T02:41:47;13.30;99.90
27633;DHT22;15046;50.930;13.334;2023-07-22T02:44:12;13.30;99.90
27633;DHT22;15046;50.930;13.334;2023-07-22T02:46:38;13.30;99.90
27633;DHT22;15046;50.930;13.334;2023-07-22T02:49:04;13.20;99.90
27633;DHT22;15046;50.930;13.334;2023-07-22T02:51:30;13.20;99.90
27633;DHT22;15046;50.930;13.334;2023-07-22T02:53:56;13.20;99.90
27633;DHT22;15046;50.930;13.334;2023-07-22T02:56:22;13.20;99.90
27633;DHT22;15046;50.930;13.334;2023-07-22T02:58:49;13.20;99.90
27633;DHT22;15046;50.930;13.334;2023-07-22T03:01:15;13.20;99.90
27633;DHT22;15046;50.930;13.334;2023-07-22T03:03:41;13.10;99.90
27633;DHT22;15046;50.930;13.334;2023-07-22T03:06:07;13.10;99.90
27633;DHT22;15046;50.930;13.334;2023-07-22T03:08:34;13.10;99.90
27633;DHT22;15046;50.930;13.334;2023-07-22T03:11:00;13.10;99.90
27633;DHT22;15046;50.930;13.334;2023-07-22T03:13:26;13.10;99.90
27633;DHT22;15046;50.930;13.334;2023-07-22T03:15:55;13.10;99.90
27633;DHT22;15046;50.930;13.334;2023-07-22T03:18:22;13.10;99.90
27633;DHT22;15046;50.930;13.334;2023-07-22T03:20:48;13.10;99.90
27633;DHT22;15046;50.930;13.334;2023-07-22T03:23:14;13.10;99.90
27633;DHT22;15046;50.930;13.334;2023-07-22T03:25:40;13.10;99.90
27633;DHT22;15046;50.930;13.334;2023-07-22T03:28:07;13.10;99.90
27633;DHT22;15046;50.930;13.334;2023-07-22T03:30:33;13.10;99.90
27633;DHT22;15046;50.930;13.334;2023-07-22T03:33:00;13.10;99.90
27633;DHT22;15046;50.930;13.334;2023-07-22T03:35:26;13.10;99.90
27633;DHT22;15046;50.930;13.334;2023-07-22T03:37:52;13.00;99.90
27633;DHT22;15046;50.930;13.334;2023-07-22T03:40:18;13.10;99.90
27633;DHT22;15046;50.930;13.334;2023-07-22T03:42:44;13.10;99.90
27633;DHT22;15046;50.930;13.334;2023-07-22T03:45:10;13.00;99.90
27633;DHT22;15046;50.930;13.334;2023-07-22T03:47:37;13.00;99.90
27633;DHT22;15046;50.930;13.334;2023-07-22T03:50:03;13.00;99.90
27633;DHT22;15046;50.930;13.334;2023-07-22T03:52:29;13.00;99.90
27633;DHT22;15046;50.930;13.334;2023-07-22T03:54:55;13.10;99.90
27633;DHT22;15046;50.930;13.334;2023-07-22T03:57:26;13.00;99.90
27633;DHT22;15046;50.930;13.334;2023-07-22T03:59:53;13.10;99.90
27633;DHT22;15046;50.930;13.334;2023-07-22T04:02:18;13.10;99.90
27633;DHT22;15046;50.930;13.334;2023-07-22T04:04:44;13.10;99.90
27633;DHT22;15046;50.930;13.334;2023-07-22T04:07:10;13.10;99.90
27633;DHT22;15046;50.930;13.334;2023-07-22T04:09:36;13.10;99.90
27633;DHT22;15046;50.930;13.334;2023-07-22T04:12:01;13.20;99.90
27633;DHT22;15046;50.930;13.334;2023-07-22T04:14:27;13.20;99.90
27633;DHT22;15046;50.930;13.334;2023-07-22T04:16:53;13.20;99.90
27633;DHT22;15046;50.930;13.334;2023-07-22T04:19:19;13.20;99.90
27633;DHT22;15046;50.930;13.334;2023-07-22T04:21:44;13.30;99.90
27633;DHT22;15046;50.930;13.334;2023-07-22T04:24:10;13.30;99.90
27633;DHT22;15046;50.930;13.334;2023-07-22T04:26:36;13.40;99.90
27633;DHT22;15046;50.930;13.334;2023-07-22T04:29:02;13.50;99.90
27633;DHT22;15046;50.930;13.334;2023-07-22T04:31:28;13.50;99.90
27633;DHT22;15046;50.930;13.334;2023-07-22T04:33:54;13.60;99.90
27633;DHT22;15046;50.930;13.334;2023-07-22T04:36:20;13.70;99.90
27633;DHT22;15046;50.930;13.334;2023-07-22T04:38:45;13.80;99.90
27633;DHT22;15046;50.930;13.334;2023-07-22T04:41:11;13.90;99.90
27633;DHT22;15046;50.930;13.334;2023-07-22T04:43:37;14.00;99.90
27633;DHT22;15046;50.930;13.334;2023-07-22T04:46:05;14.00;99.90
27633;DHT22;15046;50.930;13.334;2023-07-22T04:48:31;14.10;99.90
27633;DHT22;15046;50.930;13.334;2023-07-22T04:50:57;14.10;99.90
27633;DHT22;15046;50.930;13.334;2023-07-22T04:53:22;14.20;99.90
27633;DHT22;15046;50.930;13.334;2023-07-22T04:55:48;14.20;99.90
27633;DHT22;15046;50.930;13.334;2023-07-22T04:58:14;14.20;99.90
27633;DHT22;15046;50.930;13.334;2023-07-22T05:00:40;14.20;99.90
27633;DHT22;15046;50.930;13.334;2023-07-22T05:03:07;14.30;99.90
27633;DHT22;15046;50.930;13.334;2023-07-22T05:05:33;14.40;99.90
27633;DHT22;15046;50.930;13.334;2023-07-22T05:07:59;14.50;99.90
27633;DHT22;15046;50.930;13.334;2023-07-22T05:10:25;14.50;99.90
27633;DHT22;15046;50.930;13.334;2023-07-22T05:12:51;14.60;99.90
27633;DHT22;15046;50.930;13.334;2023-07-22T05:15:16;14.70;99.90
27633;DHT22;15046;50.930;13.334;2023-07-22T05:17:42;14.70;99.90
27633;DHT22;15046;50.930;13.334;2023-07-22T05:20:08;14.70;99.90
27633;DHT22;15046;50.930;13.334;2023-07-22T05:22:38;14.80;99.90
27633;DHT22;15046;50.930;13.334;2023-07-22T05:25:05;14.80;99.90
27633;DHT22;15046;50.930;13.334;2023-07-22T05:27:32;14.70;99.90
27633;DHT22;15046;50.930;13.334;2023-07-22T05:29:58;14.70;99.90
27633;DHT22;15046;50.930;13.334;2023-07-22T05:32:24;14.80;99.90
27633;DHT22;15046;50.930;13.334;2023-07-22T05:34:49;14.90;99.90
27633;DHT22;15046;50.930;13.334;2023-07-22T05:37:15;14.90;99.90
27633;DHT22;15046;50.930;13.334;2023-07-22T05:39:41;15.00;99.90
27633;DHT22;15046;50.930;13.334;2023-07-22T05:42:06;15.10;99.90
27633;DHT22;15046;50.930;13.334;2023-07-22T05:44:32;15.20;99.90
27633;DHT22;15046;50.930;13.334;2023-07-22T05:46:58;15.20;99.90
27633;DHT22;15046;50.930;13.334;2023-07-22T05:49:24;15.30;99.90
27633;DHT22;15046;50.930;13.334;2023-07-22T05:51:50;15.30;99.90
27633;DHT22;15046;50.930;13.334;2023-07-22T05:54:16;15.20;99.90
27633;DHT22;15046;50.930;13.334;2023-07-22T05:56:42;15.20;99.90
27633;DHT22;15046;50.930;13.334;2023-07-22T05:59:08;15.20;99.90
27633;DHT22;15046;50.930;13.334;2023-07-22T06:01:34;15.20;99.90
27633;DHT22;15046;50.930;13.334;2023-07-22T06:04:00;15.30;99.90
27633;DHT22;15046;50.930;13.334;2023-07-22T06:06:26;15.30;99.90
27633;DHT22;15046;50.930;13.334;2023-07-22T06:08:52;15.30;99.90
27633;DHT22;15046;50.930;13.334;2023-07-22T06:11:18;15.40;99.90
27633;DHT22;15046;50.930;13.334;2023-07-22T06:13:44;15.50;99.90
27633;DHT22;15046;50.930;13.334;2023-07-22T06:16:09;15.60;99.90
27633;DHT22;15046;50.930;13.334;2023-07-22T06:18:35;15.60;99.90
27633;DHT22;15046;50.930;13.334;2023-07-22T06:21:01;15.60;99.90
27633;DHT22;15046;50.930;13.334;2023-07-22T06:23:27;15.60;99.90
27633;DHT22;15046;50.930;13.334;2023-07-22T06:25:52;15.70;99.90
27633;DHT22;15046;50.930;13.334;2023-07-22T06:28:18;15.80;99.90
27633;DHT22;15046;50.930;13.334;2023-07-22T06:30:44;15.80;99.90
27633;DHT22;15046;50.930;13.334;2023-07-22T06:33:10;15.90;99.90
27633;DHT22;15046;50.930;13.334;2023-07-22T06:35:35;15.90;99.90
27633;DHT22;15046;50.930;13.334;2023-07-22T06:38:01;15.90;99.90
27633;DHT22;15046;50.930;13.334;2023-07-22T06:40:27;15.90;99.90
27633;DHT22;15046;50.930;13.334;2023-07-22T06:42:53;15.90;99.90
27633;DHT22;15046;50.930;13.334;2023-07-22T06:45:19;16.00;99.90
27633;DHT22;15046;50.930;13.334;2023-07-22T06:47:44;16.00;99.90
27633;DHT22;15046;50.930;13.334;2023-07-22T06:50:11;16.20;99.90
27633;DHT22;15046;50.930;13.334;2023-07-22T06:52:37;16.30;99.90
27633;DHT22;15046;50.930;13.334;2023-07-22T06:55:04;16.20;99.90
27633;DHT22;15046;50.930;13.334;2023-07-22T06:57:30;16.20;99.90
27633;DHT22;15046;50.930;13.334;2023-07-22T06:59:56;16.20;99.90
27633;DHT22;15046;50.930;13.334;2023-07-22T07:02:22;16.30;99.90
27633;DHT22;15046;50.930;13.334;2023-07-22T07:04:49;16.30;99.90
27633;DHT22;15046;50.930;13.334;2023-07-22T07:07:15;16.40;99.90
27633;DHT22;15046;50.930;13.334;2023-07-22T07:09:41;16.50;99.90
27633;DHT22;15046;50.930;13.334;2023-07-22T07:12:07;16.50;99.90
27633;DHT22;15046;50.930;13.334;2023-07-22T07:14:34;16.50;99.90
27633;DHT22;15046;50.930;13.334;2023-07-22T07:17:00;16.30;99.90
27633;DHT22;15046;50.930;13.334;2023-07-22T07:19:27;16.30;99.90
27633;DHT22;15046;50.930;13.334;2023-07-22T07:21:53;16.30;99.90
27633;DHT22;15046;50.930;13.334;2023-07-22T07:24:19;16.30;99.90
27633;DHT22;15046;50.930;13.334;2023-07-22T07:26:45;16.30;99.90
27633;DHT22;15046;50.930;13.334;2023-07-22T07:29:11;16.20;99.90
27633;DHT22;15046;50.930;13.334;2023-07-22T07:31:37;16.20;99.90
27633;DHT22;15046;50.930;13.334;2023-07-22T07:34:03;16.30;99.90
27633;DHT22;15046;50.930;13.334;2023-07-22T07:36:29;16.20;99.90
27633;DHT22;15046;50.930;13.334;2023-07-22T07:38:55;16.30;99.90
27633;DHT22;15046;50.930;13.334;2023-07-22T07:41:21;16.40;99.90
27633;DHT22;15046;50.930;13.334;2023-07-22T07:43:47;16.50;99.90
27633;DHT22;15046;50.930;13.334;2023-07-22T07:46:23;16.60;99.90
27633;DHT22;15046;50.930;13.334;2023-07-22T07:51:20;16.70;99.90
27633;DHT22;15046;50.930;13.334;2023-07-22T07:53:47;16.90;99.90
27633;DHT22;15046;50.930;13.334;2023-07-22T07:56:13;17.00;99.90
27633;DHT22;15046;50.930;13.334;2023-07-22T07:58:39;16.90;99.90
27633;DHT22;15046;50.930;13.334;2023-07-22T08:01:06;17.00;99.90
27633;DHT22;15046;50.930;13.334;2023-07-22T08:03:33;17.10;99.90
27633;DHT22;15046;50.930;13.334;2023-07-22T08:06:01;17.30;99.90
27633;DHT22;15046;50.930;13.334;2023-07-22T08:08:26;17.50;99.90
27633;DHT22;15046;50.930;13.334;2023-07-22T08:13:25;17.50;99.90
27633;DHT22;15046;50.930;13.334;2023-07-22T08:15:52;17.60;99.90
27633;DHT22;15046;50.930;13.334;2023-07-22T08:18:17;17.60;99.90
27633;DHT22;15046;50.930;13.334;2023-07-22T08:20:43;17.70;99.90
27633;DHT22;15046;50.930;13.334;2023-07-22T08:23:09;17.90;99.90
27633;DHT22;15046;50.930;13.334;2023-07-22T08:25:35;18.00;99.90
27633;DHT22;15046;50.930;13.334;2023-07-22T08:28:00;18.20;99.90
27633;DHT22;15046;50.930;13.334;2023-07-22T08:30:26;18.10;99.80
27633;DHT22;15046;50.930;13.334;2023-07-22T08:32:52;18.20;99.90
27633;DHT22;15046;50.930;13.334;2023-07-22T08:35:17;18.10;99.90
27633;DHT22;15046;50.930;13.334;2023-07-22T08:37:43;18.00;98.90
27633;DHT22;15046;50.930;13.334;2023-07-22T08:40:10;18.10;98.60
27633;DHT22;15046;50.930;13.334;2023-07-22T08:42:37;18.20;97.80
27633;DHT22;15046;50.930;13.334;2023-07-22T08:45:04;18.40;97.80
27633;DHT22;15046;50.930;13.334;2023-07-22T08:47:32;18.70;96.10
27633;DHT22;15046;50.930;13.334;2023-07-22T08:50:01;18.60;95.00
27633;DHT22;15046;50.930;13.334;2023-07-22T08:52:27;18.60;94.90
27633;DHT22;15046;50.930;13.334;2023-07-22T08:54:53;18.50;95.10
27633;DHT22;15046;50.930;13.334;2023-07-22T08:57:20;18.50;95.00
27633;DHT22;15046;50.930;13.334;2023-07-22T08:59:47;18.60;94.90
27633;DHT22;15046;50.930;13.334;2023-07-22T09:02:13;18.70;94.10
27633;DHT22;15046;50.930;13.334;2023-07-22T09:04:40;18.90;93.80
27633;DHT22;15046;50.930;13.334;2023-07-22T09:07:10;19.00;93.90
27633;DHT22;15046;50.930;13.334;2023-07-22T09:09:37;19.30;93.30
27633;DHT22;15046;50.930;13.334;2023-07-22T09:12:04;19.60;92.80
27633;DHT22;15046;50.930;13.334;2023-07-22T09:14:31;19.70;91.70
27633;DHT22;15046;50.930;13.334;2023-07-22T09:16:58;19.80;90.90
27633;DHT22;15046;50.930;13.334;2023-07-22T09:19:24;19.90;90.30
27633;DHT22;15046;50.930;13.334;2023-07-22T09:21:49;20.00;90.20
27633;DHT22;15046;50.930;13.334;2023-07-22T09:24:24;20.20;89.50
27633;DHT22;15046;50.930;13.334;2023-07-22T09:26:50;20.30;89.00
27633;DHT22;15046;50.930;13.334;2023-07-22T09:29:16;20.40;89.10
27633;DHT22;15046;50.930;13.334;2023-07-22T09:31:50;20.60;87.00
27633;DHT22;15046;50.930;13.334;2023-07-22T09:34:16;20.70;83.80
27633;DHT22;15046;50.930;13.334;2023-07-22T09:36:51;20.90;84.40
27633;DHT22;15046;50.930;13.334;2023-07-22T09:39:17;20.90;83.60
27633;DHT22;15046;50.930;13.334;2023-07-22T09:41:43;20.70;83.20
27633;DHT22;15046;50.930;13.334;2023-07-22T09:44:10;20.50;82.90
27633;DHT22;15046;50.930;13.334;2023-07-22T09:46:37;20.60;82.70
27633;DHT22;15046;50.930;13.334;2023-07-22T09:49:09;20.70;82.80
27633;DHT22;15046;50.930;13.334;2023-07-22T09:51:37;20.90;82.20
27633;DHT22;15046;50.930;13.334;2023-07-22T09:54:04;21.00;81.60
27633;DHT22;15046;50.930;13.334;2023-07-22T09:56:30;21.00;82.40
27633;DHT22;15046;50.930;13.334;2023-07-22T09:58:59;21.30;81.60
27633;DHT22;15046;50.930;13.334;2023-07-22T10:01:25;21.50;80.00
27633;DHT22;15046;50.930;13.334;2023-07-22T10:03:55;21.70;77.30
27633;DHT22;15046;50.930;13.334;2023-07-22T10:06:28;22.00;76.50
27633;DHT22;15046;50.930;13.334;2023-07-22T10:08:56;22.40;75.30
27633;DHT22;15046;50.930;13.334;2023-07-22T10:11:27;22.90;74.50
27633;DHT22;15046;50.930;13.334;2023-07-22T10:13:53;23.60;72.00
27633;DHT22;15046;50.930;13.334;2023-07-22T10:16:20;23.50;70.90
27633;DHT22;15046;50.930;13.334;2023-07-22T10:18:47;23.10;71.50
27633;DHT22;15046;50.930;13.334;2023-07-22T10:21:14;22.90;72.60
27633;DHT22;15046;50.930;13.334;2023-07-22T10:23:40;22.80;72.70
27633;DHT22;15046;50.930;13.334;2023-07-22T10:26:06;23.60;71.10
27633;DHT22;15046;50.930;13.334;2023-07-22T10:28:32;24.20;68.30
27633;DHT22;15046;50.930;13.334;2023-07-22T10:30:59;24.50;66.50
27633;DHT22;15046;50.930;13.334;2023-07-22T10:33:25;23.90;66.90
27633;DHT22;15046;50.930;13.334;2023-07-22T10:36:16;23.30;67.70
27633;DHT22;15046;50.930;13.334;2023-07-22T10:38:43;22.70;67.50
27633;DHT22;15046;50.930;13.334;2023-07-22T10:41:16;22.40;69.10
27633;DHT22;15046;50.930;13.334;2023-07-22T10:43:53;22.00;69.10
27633;DHT22;15046;50.930;13.334;2023-07-22T10:46:37;22.10;69.40
27633;DHT22;15046;50.930;13.334;2023-07-22T10:49:13;23.00;68.60
27633;DHT22;15046;50.930;13.334;2023-07-22T10:51:40;23.20;67.60
27633;DHT22;15046;50.930;13.334;2023-07-22T10:54:13;22.90;67.60
27633;DHT22;15046;50.930;13.334;2023-07-22T10:56:48;22.60;67.20
27633;DHT22;15046;50.930;13.334;2023-07-22T10:59:14;22.50;67.50
27633;DHT22;15046;50.930;13.334;2023-07-22T11:01:41;22.50;68.50
27633;DHT22;15046;50.930;13.334;2023-07-22T11:04:21;22.50;69.50
27633;DHT22;15046;50.930;13.334;2023-07-22T11:06:58;22.90;69.20
27633;DHT22;15046;50.930;13.334;2023-07-22T11:14:27;24.50;65.00
27633;DHT22;15046;50.930;13.334;2023-07-22T11:16:54;24.50;63.20
27633;DHT22;15046;50.930;13.334;2023-07-22T11:19:23;24.50;63.00
27633;DHT22;15046;50.930;13.334;2023-07-22T11:21:53;25.40;63.30
27633;DHT22;15046;50.930;13.334;2023-07-22T11:24:20;26.00;63.40
27633;DHT22;15046;50.930;13.334;2023-07-22T11:26:47;27.30;60.20
27633;DHT22;15046;50.930;13.334;2023-07-22T11:29:13;27.20;58.40
27633;DHT22;15046;50.930;13.334;2023-07-22T11:31:44;26.40;58.20
27633;DHT22;15046;50.930;13.334;2023-07-22T11:34:22;25.50;58.70
27633;DHT22;15046;50.930;13.334;2023-07-22T11:36:49;24.80;59.40
27633;DHT22;15046;50.930;13.334;2023-07-22T11:39:17;24.80;60.80
27633;DHT22;15046;50.930;13.334;2023-07-22T11:41:44;25.10;59.40
27633;DHT22;15046;50.930;13.334;2023-07-22T11:44:15;24.90;59.30
27633;DHT22;15046;50.930;13.334;2023-07-22T11:47:02;24.60;59.80
27633;DHT22;15046;50.930;13.334;2023-07-22T11:49:34;25.60;59.90
27633;DHT22;15046;50.930;13.334;2023-07-22T11:52:11;27.30;59.10
27633;DHT22;15046;50.930;13.334;2023-07-22T11:54:41;28.30;57.00
27633;DHT22;15046;50.930;13.334;2023-07-22T11:57:21;27.70;55.80
27633;DHT22;15046;50.930;13.334;2023-07-22T11:59:49;27.30;55.10
27633;DHT22;15046;50.930;13.334;2023-07-22T12:02:16;27.50;55.40
27633;DHT22;15046;50.930;13.334;2023-07-22T12:04:43;28.20;54.40
27633;DHT22;15046;50.930;13.334;2023-07-22T12:07:25;29.20;54.60
27633;DHT22;15046;50.930;13.334;2023-07-22T12:09:52;30.10;53.10
27633;DHT22;15046;50.930;13.334;2023-07-22T12:12:18;29.70;52.90
27633;DHT22;15046;50.930;13.334;2023-07-22T12:14:44;29.90;52.30
27633;DHT22;15046;50.930;13.334;2023-07-22T12:17:09;29.70;51.90
27633;DHT22;15046;50.930;13.334;2023-07-22T12:19:35;29.00;52.30
27633;DHT22;15046;50.930;13.334;2023-07-22T12:22:01;28.00;51.60
27633;DHT22;15046;50.930;13.334;2023-07-22T12:24:28;27.00;52.40
27633;DHT22;15046;50.930;13.334;2023-07-22T12:26:54;26.30;53.30
27633;DHT22;15046;50.930;13.334;2023-07-22T12:29:20;25.80;54.50
27633;DHT22;15046;50.930;13.334;2023-07-22T12:31:45;25.50;55.00
27633;DHT22;15046;50.930;13.334;2023-07-22T12:34:11;25.40;55.10
27633;DHT22;15046;50.930;13.334;2023-07-22T12:36:37;25.20;55.90
27633;DHT22;15046;50.930;13.334;2023-07-22T12:39:03;25.10;55.60
27633;DHT22;15046;50.930;13.334;2023-07-22T12:41:30;25.00;55.50
27633;DHT22;15046;50.930;13.334;2023-07-22T12:43:56;24.70;56.50
27633;DHT22;15046;50.930;13.334;2023-07-22T12:46:21;24.50;56.90
27633;DHT22;15046;50.930;13.334;2023-07-22T12:48:47;24.70;56.90
27633;DHT22;15046;50.930;13.334;2023-07-22T12:51:13;25.60;57.60
27633;DHT22;15046;50.930;13.334;2023-07-22T12:53:39;26.70;57.50
27633;DHT22;15046;50.930;13.334;2023-07-22T12:56:05;27.20;55.90
27633;DHT22;15046;50.930;13.334;2023-07-22T12:58:31;27.20;55.00
27633;DHT22;15046;50.930;13.334;2023-07-22T13:00:58;27.10;54.50
27633;DHT22;15046;50.930;13.334;2023-07-22T13:03:24;27.60;54.20
27633;DHT22;15046;50.930;13.334;2023-07-22T13:05:50;28.40;53.40
27633;DHT22;15046;50.930;13.334;2023-07-22T13:11:03;30.00;51.70
27633;DHT22;15046;50.930;13.334;2023-07-22T13:13:29;30.50;50.80
27633;DHT22;15046;50.930;13.334;2023-07-22T13:15:55;30.80;49.20
27633;DHT22;15046;50.930;13.334;2023-07-22T13:18:21;30.80;48.20
27633;DHT22;15046;50.930;13.334;2023-07-22T13:20:46;30.70;48.20
27633;DHT22;15046;50.930;13.334;2023-07-22T13:23:12;30.30;48.30
27633;DHT22;15046;50.930;13.334;2023-07-22T13:25:38;29.60;48.80
27633;DHT22;15046;50.930;13.334;2023-07-22T13:28:04;29.00;49.30
27633;DHT22;15046;50.930;13.334;2023-07-22T13:30:29;28.50;50.20
27633;DHT22;15046;50.930;13.334;2023-07-22T13:32:55;28.30;50.70
27633;DHT22;15046;50.930;13.334;2023-07-22T13:35:22;28.30;50.50
27633;DHT22;15046;50.930;13.334;2023-07-22T13:37:47;28.30;50.00
27633;DHT22;15046;50.930;13.334;2023-07-22T13:40:13;28.10;49.80
27633;DHT22;15046;50.930;13.334;2023-07-22T13:42:39;27.90;50.80
27633;DHT22;15046;50.930;13.334;2023-07-22T13:45:05;28.30;51.00
27633;DHT22;15046;50.930;13.334;2023-07-22T13:47:31;28.40;49.90
27633;DHT22;15046;50.930;13.334;2023-07-22T13:49:57;28.70;50.30
27633;DHT22;15046;50.930;13.334;2023-07-22T13:52:23;29.70;50.30
27633;DHT22;15046;50.930;13.334;2023-07-22T13:54:49;30.80;49.50
27633;DHT22;15046;50.930;13.334;2023-07-22T13:57:15;31.40;48.00
27633;DHT22;15046;50.930;13.334;2023-07-22T13:59:41;30.70;47.40
27633;DHT22;15046;50.930;13.334;2023-07-22T14:02:07;30.00;48.30
27633;DHT22;15046;50.930;13.334;2023-07-22T14:04:33;30.00;48.60
27633;DHT22;15046;50.930;13.334;2023-07-22T14:06:59;30.80;48.30
27633;DHT22;15046;50.930;13.334;2023-07-22T14:09:25;31.20;47.20
27633;DHT22;15046;50.930;13.334;2023-07-22T14:11:50;31.30;46.70
27633;DHT22;15046;50.930;13.334;2023-07-22T14:14:16;31.00;45.20
27633;DHT22;15046;50.930;13.334;2023-07-22T14:16:42;30.30;46.00
27633;DHT22;15046;50.930;13.334;2023-07-22T14:19:08;30.30;46.30
27633;DHT22;15046;50.930;13.334;2023-07-22T14:21:34;30.90;46.70
27633;DHT22;15046;50.930;13.334;2023-07-22T14:23:59;31.60;45.20
27633;DHT22;15046;50.930;13.334;2023-07-22T14:26:25;31.40;45.10
27633;DHT22;15046;50.930;13.334;2023-07-22T14:28:51;31.10;45.40
27633;DHT22;15046;50.930;13.334;2023-07-22T14:31:16;31.20;45.20
27633;DHT22;15046;50.930;13.334;2023-07-22T14:33:42;31.00;45.10
27633;DHT22;15046;50.930;13.334;2023-07-22T14:36:08;30.30;45.30
27633;DHT22;15046;50.930;13.334;2023-07-22T14:38:34;29.70;46.00
27633;DHT22;15046;50.930;13.334;2023-07-22T14:40:59;29.40;46.50
27633;DHT22;15046;50.930;13.334;2023-07-22T14:43:25;29.10;45.80
27633;DHT22;15046;50.930;13.334;2023-07-22T14:45:52;29.10;45.70
27633;DHT22;15046;50.930;13.334;2023-07-22T14:48:18;29.10;46.20
27633;DHT22;15046;50.930;13.334;2023-07-22T14:50:43;29.30;45.80
27633;DHT22;15046;50.930;13.334;2023-07-22T14:53:09;29.30;45.80
27633;DHT22;15046;50.930;13.334;2023-07-22T14:55:35;29.60;45.60
27633;DHT22;15046;50.930;13.334;2023-07-22T14:58:01;30.20;46.80
27633;DHT22;15046;50.930;13.334;2023-07-22T15:00:26;30.90;45.40
27633;DHT22;15046;50.930;13.334;2023-07-22T15:02:52;31.30;45.80
27633;DHT22;15046;50.930;13.334;2023-07-22T15:05:18;31.70;44.40
27633;DHT22;15046;50.930;13.334;2023-07-22T15:07:44;31.90;43.40
27633;DHT22;15046;50.930;13.334;2023-07-22T15:10:10;31.70;43.10
27633;DHT22;15046;50.930;13.334;2023-07-22T15:12:36;31.60;43.50
27633;DHT22;15046;50.930;13.334;2023-07-22T15:15:01;31.60;43.00
27633;DHT22;15046;50.930;13.334;2023-07-22T15:17:27;31.30;43.30
27633;DHT22;15046;50.930;13.334;2023-07-22T15:19:56;31.40;43.60
27633;DHT22;15046;50.930;13.334;2023-07-22T15:22:21;31.60;43.90
27633;DHT22;15046;50.930;13.334;2023-07-22T15:24:47;31.70;43.50